Time;durP1;ratioP1;P1;durP2;ratioP2;P2;SDS_P1;SDS_P2;PMS_P1;PMS_P2;Temp;Humidity;BMP_temperature;BMP_pressure;BME280_temperature;BME280_humidity;BME280_pressure;Samples;Min_cycle;Max_cycle;Signal;HPM_P1;HPM_P2
2023/03/15 00:00:41;;;;;;;1.83;1.50;;;;;;;;;;10450593;28;20048;-83
2023/03/15 00:05:43;;;;;;;1.67;1.00;;;;;;;;;;10450094;28;20585;-83
2023/03/15 00:10:44;;;;;;;1.40;1.30;;;;;;;;;;10450118;28;20557;-84
2023/03/15 00:15:52;;;;;;;2.17;1.50;;;;;;;;;;10448321;28;20037;-85
2023/03/15 00:20:53;;;;;;;5.63;1.70;;;;;;;;;;10444814;28;20037;-86
2023/03/15 00:25:55;;;;;;;3.87;2.17;;;;;;;;;;10449475;28;20271;-85
2023/03/15 00:31:02;;;;;;;1.93;1.40;;;;;;;;;;10448328;28;20542;-85
2023/03/15 00:36:07;;;;;;;1.87;1.40;;;;;;;;;;10444685;28;20572;-84
2023/03/15 00:41:10;;;;;;;2.30;1.50;;;;;;;;;;10449585;28;20045;-84
2023/03/15 00:46:11;;;;;;;2.47;1.60;;;;;;;;;;10440023;28;20033;-85
2023/03/15 00:51:14;;;;;;;2.20;1.90;;;;;;;;;;10447738;28;20057;-85
2023/03/15 00:56:16;;;;;;;3.13;1.80;;;;;;;;;;10448302;28;20039;-85
2023/03/15 01:01:25;;;;;;;2.63;1.87;;;;;;;;;;10447497;28;20043;-83
2023/03/15 01:06:27;;;;;;;4.63;2.03;;;;;;;;;;10434678;28;20043;-85
2023/03/15 01:11:29;;;;;;;3.83;1.93;;;;;;;;;;10448061;28;20055;-84
2023/03/15 01:16:30;;;;;;;4.10;2.47;;;;;;;;;;10446444;28;20029;-84
2023/03/15 01:21:31;;;;;;;3.40;2.43;;;;;;;;;;10447791;28;20048;-84
2023/03/15 01:26:32;;;;;;;5.90;2.43;;;;;;;;;;10435011;28;20033;-84
2023/03/15 01:31:33;;;;;;;5.47;2.27;;;;;;;;;;10445744;28;20031;-84
2023/03/15 01:36:34;;;;;;;4.30;2.80;;;;;;;;;;10447085;28;20035;-84
2023/03/15 01:41:36;;;;;;;4.10;2.60;;;;;;;;;;10433751;28;20033;-83
2023/03/15 01:46:37;;;;;;;4.03;2.90;;;;;;;;;;10446593;22;20064;-84
2023/03/15 01:51:57;;;;;;;3.63;2.43;;;;;;;;;;10365038;28;20032;-84
2023/03/15 01:57:18;;;;;;;10.80;2.80;;;;;;;;;;10368407;28;20034;-84
2023/03/15 02:02:21;;;;;;;3.80;2.53;;;;;;;;;;10364234;28;20050;-84
2023/03/15 02:07:24;;;;;;;12.63;3.13;;;;;;;;;;10364746;28;20022;-85
2023/03/15 02:12:25;;;;;;;10.57;3.40;;;;;;;;;;10364159;28;20022;-84
2023/03/15 02:17:35;;;;;;;9.07;3.53;;;;;;;;;;10372240;28;20036;-85
2023/03/15 02:22:56;;;;;;;11.33;2.57;;;;;;;;;;10380813;28;20477;-84
2023/03/15 02:27:58;;;;;;;5.43;2.90;;;;;;;;;;10364019;28;20033;-84
2023/03/15 02:32:59;;;;;;;6.00;2.63;;;;;;;;;;10372620;28;20034;-85
2023/03/15 02:38:01;;;;;;;6.93;3.00;;;;;;;;;;10366533;28;20564;-84
2023/03/15 02:43:04;;;;;;;11.00;3.00;;;;;;;;;;10354173;28;20042;-84
2023/03/15 02:48:06;;;;;;;8.67;3.10;;;;;;;;;;10371584;28;20045;-84
2023/03/15 02:53:07;;;;;;;7.13;2.97;;;;;;;;;;10361473;28;20034;-84
2023/03/15 02:58:08;;;;;;;9.77;3.17;;;;;;;;;;10364182;28;20152;-85
2023/03/15 03:03:10;;;;;;;8.73;3.13;;;;;;;;;;10361216;28;20081;-86
2023/03/15 03:08:15;;;;;;;6.63;2.77;;;;;;;;;;10374991;28;20030;-84
2023/03/15 03:13:16;;;;;;;8.70;2.73;;;;;;;;;;10361684;28;20116;-84
2023/03/15 03:18:17;;;;;;;11.87;3.67;;;;;;;;;;10360934;28;20029;-84
2023/03/15 03:23:18;;;;;;;6.97;2.90;;;;;;;;;;10362569;28;20489;-85
2023/03/15 03:28:20;;;;;;;7.53;2.70;;;;;;;;;;10361816;28;20041;-83
2023/03/15 03:33:21;;;;;;;8.73;2.97;;;;;;;;;;10370207;28;20040;-83
2023/03/15 03:38:22;;;;;;;6.90;3.20;;;;;;;;;;10359863;28;20033;-84
2023/03/15 03:43:23;;;;;;;8.10;2.63;;;;;;;;;;10368659;28;20033;-85
2023/03/15 03:48:24;;;;;;;7.63;2.77;;;;;;;;;;10366964;28;20058;-85
2023/03/15 03:53:25;;;;;;;8.97;3.43;;;;;;;;;;10361141;28;20559;-84
2023/03/15 03:58:26;;;;;;;9.53;2.90;;;;;;;;;;10359584;28;20034;-83
2023/03/15 04:03:27;;;;;;;12.07;2.97;;;;;;;;;;10364016;28;20036;-82
2023/03/15 04:08:28;;;;;;;7.20;3.43;;;;;;;;;;10364840;28;20026;-83
2023/03/15 04:13:30;;;;;;;10.27;3.20;;;;;;;;;;10353171;28;20401;-86
2023/03/15 04:18:31;;;;;;;10.53;3.60;;;;;;;;;;10348215;28;20060;-81
2023/03/15 04:23:33;;;;;;;14.00;3.83;;;;;;;;;;10360873;28;20786;-80
2023/03/15 04:28:36;;;;;;;10.40;3.17;;;;;;;;;;10361530;28;20065;-81
2023/03/15 04:33:37;;;;;;;9.37;3.83;;;;;;;;;;10362123;28;20045;-83
2023/03/15 04:38:38;;;;;;;8.17;3.40;;;;;;;;;;10362727;28;20398;-81
2023/03/15 04:43:39;;;;;;;10.50;4.43;;;;;;;;;;10372451;28;20052;-81
2023/03/15 04:48:40;;;;;;;11.00;4.60;;;;;;;;;;10368732;28;20068;-80
2023/03/15 04:53:41;;;;;;;9.13;3.87;;;;;;;;;;10372812;28;20033;-80
2023/03/15 04:58:42;;;;;;;14.03;4.23;;;;;;;;;;10374905;28;20634;-81
2023/03/15 05:03:44;;;;;;;8.27;4.07;;;;;;;;;;10368877;28;20092;-82
2023/03/15 05:08:45;;;;;;;12.73;4.50;;;;;;;;;;10373216;28;20037;-85
2023/03/15 05:13:46;;;;;;;9.57;4.07;;;;;;;;;;10353451;28;20033;-85
2023/03/15 05:18:47;;;;;;;13.50;3.97;;;;;;;;;;10377606;28;20038;-83
2023/03/15 05:23:48;;;;;;;8.80;3.20;;;;;;;;;;10372651;28;20041;-84
2023/03/15 05:28:51;;;;;;;6.93;3.83;;;;;;;;;;10365318;28;20108;-84
2023/03/15 05:33:53;;;;;;;10.47;4.43;;;;;;;;;;10366025;28;20128;-85
2023/03/15 05:38:54;;;;;;;13.27;3.83;;;;;;;;;;10363912;28;20058;-84
2023/03/15 05:43:55;;;;;;;9.10;3.60;;;;;;;;;;10365108;28;20028;-84
2023/03/15 05:48:56;;;;;;;12.93;4.60;;;;;;;;;;10364916;28;20054;-83
2023/03/15 05:53:57;;;;;;;14.30;3.97;;;;;;;;;;10362873;28;20467;-85
2023/03/15 05:59:00;;;;;;;10.60;5.03;;;;;;;;;;10363555;28;20860;-85
2023/03/15 06:04:01;;;;;;;7.10;3.33;;;;;;;;;;10364327;28;20033;-83
2023/03/15 06:09:02;;;;;;;7.37;3.57;;;;;;;;;;10365008;28;20664;-84
2023/03/15 06:14:04;;;;;;;13.17;4.30;;;;;;;;;;10363354;28;20033;-85
2023/03/15 06:19:05;;;;;;;16.60;4.67;;;;;;;;;;10363616;28;20042;-84
2023/03/15 06:24:06;;;;;;;15.60;4.47;;;;;;;;;;10362214;28;20371;-84
2023/03/15 06:29:07;;;;;;;10.63;4.10;;;;;;;;;;10363314;28;20034;-84
2023/03/15 06:34:08;;;;;;;11.93;4.43;;;;;;;;;;10363827;28;20489;-84
2023/03/15 06:39:11;;;;;;;13.73;4.70;;;;;;;;;;10362946;28;20425;-84
2023/03/15 06:44:12;;;;;;;11.93;3.60;;;;;;;;;;10361192;28;20606;-85
2023/03/15 06:49:13;;;;;;;12.77;3.90;;;;;;;;;;10362891;28;20152;-85
2023/03/15 06:54:14;;;;;;;12.40;3.53;;;;;;;;;;10362204;28;20037;-84
2023/03/15 06:59:15;;;;;;;9.73;3.90;;;;;;;;;;10360903;28;20111;-83
2023/03/15 07:04:16;;;;;;;7.07;3.20;;;;;;;;;;10362352;28;20434;-84
2023/03/15 07:09:17;;;;;;;12.80;3.27;;;;;;;;;;10362447;28;20030;-84
2023/03/15 07:14:18;;;;;;;11.40;3.03;;;;;;;;;;10361895;28;20397;-86
2023/03/15 07:19:19;;;;;;;12.50;3.33;;;;;;;;;;10361369;28;20044;-84
2023/03/15 07:24:20;;;;;;;8.67;3.27;;;;;;;;;;10361661;28;20498;-84
2023/03/15 07:29:23;;;;;;;14.67;4.40;;;;;;;;;;10360179;28;20072;-84
2023/03/15 07:34:24;;;;;;;12.37;2.83;;;;;;;;;;10360019;28;20096;-84
2023/03/15 07:39:25;;;;;;;9.40;3.17;;;;;;;;;;10361521;28;20632;-84
2023/03/15 07:44:26;;;;;;;6.90;3.43;;;;;;;;;;10361293;28;20084;-85
2023/03/15 07:49:27;;;;;;;10.80;3.33;;;;;;;;;;10361133;28;20533;-84
2023/03/15 07:54:30;;;;;;;11.53;3.53;;;;;;;;;;10360950;28;20457;-84
2023/03/15 07:59:32;;;;;;;7.93;2.80;;;;;;;;;;10361303;28;20034;-84
2023/03/15 08:04:33;;;;;;;14.00;3.70;;;;;;;;;;10360875;28;20026;-84
2023/03/15 08:09:34;;;;;;;15.57;4.40;;;;;;;;;;10361184;28;20025;-83
2023/03/15 08:14:36;;;;;;;7.13;3.03;;;;;;;;;;10366012;28;20485;-86
2023/03/15 08:19:37;;;;;;;11.63;3.20;;;;;;;;;;10368667;28;20026;-84
2023/03/15 08:24:38;;;;;;;12.97;3.60;;;;;;;;;;10369095;28;20033;-87
2023/03/15 08:29:39;;;;;;;14.43;3.70;;;;;;;;;;10368456;28;20600;-84
2023/03/15 08:34:40;;;;;;;13.30;3.00;;;;;;;;;;10367631;28;20033;-84
2023/03/15 08:39:41;;;;;;;13.40;2.70;;;;;;;;;;10366224;28;20551;-84
2023/03/15 08:44:42;;;;;;;10.40;3.10;;;;;;;;;;10367539;28;20034;-84
2023/03/15 08:49:43;;;;;;;11.80;2.87;;;;;;;;;;10365608;28;20592;-87
2023/03/15 08:54:44;;;;;;;7.77;2.47;;;;;;;;;;10365424;28;20393;-85
2023/03/15 08:59:45;;;;;;;7.90;2.73;;;;;;;;;;10367036;28;20128;-84
2023/03/15 09:04:46;;;;;;;10.33;2.70;;;;;;;;;;10366760;28;20687;-84
2023/03/15 09:09:47;;;;;;;5.73;2.30;;;;;;;;;;10366530;28;20032;-84
2023/03/15 09:14:48;;;;;;;6.50;2.03;;;;;;;;;;10366266;28;20046;-84
2023/03/15 09:19:51;;;;;;;10.93;2.93;;;;;;;;;;10365676;28;20088;-84
2023/03/15 09:24:52;;;;;;;8.33;2.30;;;;;;;;;;10363758;28;20022;-85
2023/03/15 09:29:53;;;;;;;9.93;2.50;;;;;;;;;;10365774;28;20018;-84
2023/03/15 09:34:54;;;;;;;5.03;1.90;;;;;;;;;;10365736;28;20034;-86
2023/03/15 09:39:55;;;;;;;5.37;1.93;;;;;;;;;;10353787;28;20070;-83
2023/03/15 09:45:00;;;;;;;4.80;1.53;;;;;;;;;;10366174;28;20461;-83
2023/03/15 09:50:23;;;;;;;11.77;2.33;;;;;;;;;;10364941;28;20062;-84
2023/03/15 09:55:25;;;;;;;9.70;1.80;;;;;;;;;;10364855;28;20076;-85
2023/03/15 10:00:30;;;;;;;5.77;1.73;;;;;;;;;;10363359;28;20088;-85
2023/03/15 10:05:38;;;;;;;4.30;1.35;;;;;;;;;;10365186;28;20036;-84
2023/03/15 10:10:44;;;;;;;6.70;1.53;;;;;;;;;;10364686;28;20033;-87
2023/03/15 10:16:20;;;;;;;5.53;1.40;;;;;;;;;;10364589;28;20105;-86
2023/03/15 10:21:32;;;;;;;2.97;1.33;;;;;;;;;;10284538;28;20050;-85
2023/03/15 10:26:36;;;;;;;9.00;1.63;;;;;;;;;;10363344;28;20026;-85
2023/03/15 10:31:39;;;;;;;8.70;1.50;;;;;;;;;;10383610;28;20061;-87
2023/03/15 10:36:44;;;;;;;5.63;1.93;;;;;;;;;;10360812;28;20030;-88
2023/03/15 10:41:47;;;;;;;7.33;1.80;;;;;;;;;;10367380;28;20048;-86
2023/03/15 10:47:10;;;;;;;3.90;1.20;;;;;;;;;;10369163;28;20057;-86
2023/03/15 10:52:44;;;;;;;7.83;1.43;;;;;;;;;;10356670;28;20465;-85
2023/03/15 10:57:58;;;;;;;2.80;0.97;;;;;;;;;;10322689;28;20056;-86
2023/03/15 11:03:02;;;;;;;4.17;1.50;;;;;;;;;;10380070;28;20030;-85
2023/03/15 11:08:03;;;;;;;6.17;1.57;;;;;;;;;;10364530;28;20026;-84
2023/03/15 11:13:13;;;;;;;2.40;0.93;;;;;;;;;;10365653;28;20036;-84
2023/03/15 11:18:19;;;;;;;14.03;1.77;;;;;;;;;;10351966;28;20113;-86
2023/03/15 11:23:24;;;;;;;10.13;1.92;;;;;;;;;;10356520;28;20428;-87
2023/03/15 11:28:30;;;;;;;6.27;1.63;;;;;;;;;;10373568;28;20392;-85
2023/03/15 11:33:51;;;;;;;4.30;1.33;;;;;;;;;;10369614;28;20057;-85
2023/03/15 11:38:53;;;;;;;4.50;1.40;;;;;;;;;;10367272;28;20409;-85
2023/03/15 11:44:02;;;;;;;3.73;1.13;;;;;;;;;;10362476;28;20410;-84
2023/03/15 11:49:15;;;;;;;3.97;1.53;;;;;;;;;;10365489;28;20057;-86
2023/03/15 11:54:20;;;;;;;3.63;1.50;;;;;;;;;;10370481;28;20551;-87
2023/03/15 11:59:29;;;;;;;4.33;1.30;;;;;;;;;;10367884;28;20037;-85
2023/03/15 12:04:33;;;;;;;3.27;1.20;;;;;;;;;;10367269;28;20072;-86
2023/03/15 12:09:35;;;;;;;7.63;1.50;;;;;;;;;;10369698;28;20038;-88
2023/03/15 12:14:37;;;;;;;11.00;2.20;;;;;;;;;;10368489;28;20374;-86
2023/03/15 12:19:38;;;;;;;4.90;1.50;;;;;;;;;;10368832;28;20053;-87
2023/03/15 12:24:39;;;;;;;9.57;2.20;;;;;;;;;;10428913;23;20869;-86
2023/03/15 12:29:43;;;;;;;7.30;2.23;;;;;;;;;;10431590;28;20060;-85
2023/03/15 12:34:50;;;;;;;4.73;2.20;;;;;;;;;;10423207;28;20033;-86
2023/03/15 12:39:51;;;;;;;;;;;;;;;;;;10420794;28;20069;-86
2023/03/15 12:44:52;;;;;;;12.87;2.60;;;;;;;;;;10421284;28;19916;-86
2023/03/15 12:49:53;;;;;;;10.10;2.77;;;;;;;;;;10417432;28;20037;-87
2023/03/15 12:54:57;;;;;;;9.67;2.27;;;;;;;;;;10431703;28;20713;-86
2023/03/15 13:00:11;;;;;;;9.73;2.60;;;;;;;;;;10434644;28;20047;-85
2023/03/15 13:05:16;;;;;;;10.93;3.30;;;;;;;;;;10430221;28;20509;-85
2023/03/15 13:10:27;;;;;;;11.87;2.57;;;;;;;;;;10417693;28;20091;-82
2023/03/15 13:15:31;;;;;;;6.30;2.30;;;;;;;;;;10447145;28;20025;-85
2023/03/15 13:20:32;;;;;;;5.73;2.80;;;;;;;;;;10445472;28;20036;-83
2023/03/15 13:25:47;;;;;;;7.87;2.70;;;;;;;;;;10438202;28;20080;-83
2023/03/15 13:30:51;;;;;;;9.40;2.40;;;;;;;;;;10410935;28;20047;-84
2023/03/15 13:35:59;;;;;;;4.43;2.17;;;;;;;;;;10404013;28;20038;-84
2023/03/15 13:41:02;;;;;;;10.33;2.83;;;;;;;;;;10413524;28;20038;-85
2023/03/15 13:46:04;;;;;;;7.80;2.47;;;;;;;;;;10416902;28;20044;-84
2023/03/15 13:51:07;;;;;;;8.03;2.10;;;;;;;;;;10456522;23;20103;-85
2023/03/15 13:56:09;;;;;;;6.70;3.00;;;;;;;;;;10445302;28;20041;-85
2023/03/15 14:01:11;;;;;;;3.23;1.50;;;;;;;;;;10445749;28;20044;-84
2023/03/15 14:06:20;;;;;;;9.47;3.17;;;;;;;;;;10441701;28;20044;-83
2023/03/15 14:11:21;;;;;;;7.00;2.20;;;;;;;;;;10404493;28;20029;-84
2023/03/15 14:16:40;;;;;;;8.33;2.47;;;;;;;;;;10403762;28;20095;-83
2023/03/15 14:21:47;;;;;;;6.23;2.27;;;;;;;;;;10404128;28;20037;-84
2023/03/15 14:26:57;;;;;;;6.13;1.87;;;;;;;;;;10404767;28;20051;-84
2023/03/15 14:32:03;;;;;;;6.57;1.60;;;;;;;;;;10449158;23;20060;-84
2023/03/15 14:37:04;;;;;;;;;;;;;;;;;;10436779;28;20036;-83
2023/03/15 14:42:06;;;;;;;3.93;1.57;;;;;;;;;;10445534;28;20020;-83
2023/03/15 14:47:15;;;;;;;6.80;2.43;;;;;;;;;;10439869;28;20347;-83
2023/03/15 14:52:16;;;;;;;11.53;2.23;;;;;;;;;;10442638;28;20047;-84
2023/03/15 14:57:17;;;;;;;3.53;1.67;;;;;;;;;;10444040;28;20039;-84
2023/03/15 15:02:18;;;;;;;5.50;2.07;;;;;;;;;;10443393;28;20098;-84
2023/03/15 15:07:19;;;;;;;6.70;2.03;;;;;;;;;;10455686;28;20016;-84
2023/03/15 15:12:20;;;;;;;6.27;1.80;;;;;;;;;;10471851;28;20024;-84
2023/03/15 15:17:21;;;;;;;7.93;2.30;;;;;;;;;;10457606;28;20024;-85
2023/03/15 15:22:22;;;;;;;9.83;2.47;;;;;;;;;;10441805;28;20044;-84
2023/03/15 15:27:23;;;;;;;5.90;3.13;;;;;;;;;;10448514;28;20058;-88
2023/03/15 15:32:24;;;;;;;8.07;2.40;;;;;;;;;;10481652;23;20057;-84
2023/03/15 15:37:25;;;;;;;9.67;2.73;;;;;;;;;;10464417;28;20133;-82
2023/03/15 15:42:26;;;;;;;6.97;2.10;;;;;;;;;;10483215;28;20062;-81
2023/03/15 15:47:27;;;;;;;6.30;1.83;;;;;;;;;;10485207;28;20032;-82
2023/03/15 15:52:28;;;;;;;7.13;2.27;;;;;;;;;;10484832;28;20816;-81
2023/03/15 15:57:29;;;;;;;7.30;2.47;;;;;;;;;;10485133;28;20033;-82
2023/03/15 16:02:30;;;;;;;6.93;3.57;;;;;;;;;;10483572;28;20040;-83
2023/03/15 16:07:32;;;;;;;8.40;2.47;;;;;;;;;;10451187;28;20028;-81
2023/03/15 16:12:33;;;;;;;6.83;3.07;;;;;;;;;;10429348;28;20824;-85
2023/03/15 16:17:34;;;;;;;9.23;3.00;;;;;;;;;;10435158;28;20555;-84
2023/03/15 16:22:36;;;;;;;11.20;3.47;;;;;;;;;;10439335;28;20037;-84
2023/03/15 16:27:37;;;;;;;11.57;2.83;;;;;;;;;;10437294;28;20029;-83
2023/03/15 16:32:38;;;;;;;10.63;3.30;;;;;;;;;;10435474;28;20087;-83
2023/03/15 16:37:40;;;;;;;10.57;2.33;;;;;;;;;;10463518;22;20073;-82
2023/03/15 16:42:41;;;;;;;10.03;3.03;;;;;;;;;;10448774;28;20044;-83
2023/03/15 16:47:42;;;;;;;9.67;3.30;;;;;;;;;;10462544;28;20159;-84
2023/03/15 16:52:45;;;;;;;12.00;3.70;;;;;;;;;;10468399;28;20158;-83
2023/03/15 16:57:45;;;;;;;9.37;2.73;;;;;;;;;;10480970;28;20029;-83
2023/03/15 17:02:48;;;;;;;9.47;3.53;;;;;;;;;;10450426;28;20049;-82
2023/03/15 17:07:51;;;;;;;9.90;3.17;;;;;;;;;;10461961;28;20032;-85
2023/03/15 17:12:53;;;;;;;6.27;3.27;;;;;;;;;;10458179;28;20833;-84
2023/03/15 17:17:56;;;;;;;8.50;2.90;;;;;;;;;;10463672;28;20028;-83
2023/03/15 17:22:59;;;;;;;8.80;3.10;;;;;;;;;;10477802;28;20075;-83
2023/03/15 17:28:00;;;;;;;13.53;3.70;;;;;;;;;;10462074;28;20017;-83
2023/03/15 17:33:02;;;;;;;8.30;3.20;;;;;;;;;;10473269;28;20031;-83
2023/03/15 17:38:05;;;;;;;13.27;4.00;;;;;;;;;;10474241;28;20057;-85
2023/03/15 17:43:06;;;;;;;10.87;3.50;;;;;;;;;;10484448;28;20052;-84
2023/03/15 17:48:07;;;;;;;11.60;4.00;;;;;;;;;;10453383;28;20035;-84
2023/03/15 17:53:14;;;;;;;15.57;6.17;;;;;;;;;;10442932;28;20396;-83
2023/03/15 17:58:20;;;;;;;17.13;6.13;;;;;;;;;;10458875;28;20044;-83
2023/03/15 18:03:21;;;;;;;15.98;5.90;;;;;;;;;;10455659;28;20134;-83
2023/03/15 18:08:23;;;;;;;15.47;5.43;;;;;;;;;;10447974;28;20032;-84
2023/03/15 18:13:25;;;;;;;15.50;5.87;;;;;;;;;;10447803;28;20025;-85
2023/03/15 18:18:27;;;;;;;15.10;5.10;;;;;;;;;;10452872;28;20021;-84
2023/03/15 18:23:28;;;;;;;12.53;4.43;;;;;;;;;;10443926;28;20040;-87
2023/03/15 18:28:29;;;;;;;17.27;5.57;;;;;;;;;;10443838;28;20044;-86
2023/03/15 18:33:30;;;;;;;22.07;6.53;;;;;;;;;;10455839;28;20049;-85
2023/03/15 18:38:31;;;;;;;22.17;7.73;;;;;;;;;;10432189;28;20025;-83
2023/03/15 18:43:32;;;;;;;24.27;9.13;;;;;;;;;;10439486;28;20021;-85
2023/03/15 18:48:33;;;;;;;28.83;9.63;;;;;;;;;;10442617;28;20029;-86
2023/03/15 18:53:34;;;;;;;22.93;8.13;;;;;;;;;;10433782;28;20275;-83
2023/03/15 18:58:35;;;;;;;21.83;7.80;;;;;;;;;;10442605;28;20029;-86
2023/03/15 19:03:36;;;;;;;31.77;8.73;;;;;;;;;;10431535;28;20551;-83
2023/03/15 19:08:37;;;;;;;20.83;7.67;;;;;;;;;;10442693;28;20066;-85
2023/03/15 19:13:38;;;;;;;20.10;7.40;;;;;;;;;;10452556;23;20469;-85
2023/03/15 19:18:41;;;;;;;16.77;7.07;;;;;;;;;;10418173;28;20025;-84
2023/03/15 19:23:42;;;;;;;17.43;7.43;;;;;;;;;;10431540;28;20854;-85
2023/03/15 19:28:43;;;;;;;19.60;6.53;;;;;;;;;;10438925;28;20029;-89
2023/03/15 19:33:44;;;;;;;15.27;6.23;;;;;;;;;;10440000;28;20120;-86
2023/03/15 19:38:45;;;;;;;14.90;6.27;;;;;;;;;;10441983;28;20041;-88
2023/03/15 19:43:46;;;;;;;15.77;7.10;;;;;;;;;;10425853;28;20041;-87
2023/03/15 19:48:47;;;;;;;24.43;7.00;;;;;;;;;;10433459;28;20068;-88
2023/03/15 19:53:49;;;;;;;18.13;6.30;;;;;;;;;;10443173;28;20047;-86
2023/03/15 19:58:50;;;;;;;17.57;6.17;;;;;;;;;;10435938;28;20029;-87
2023/03/15 20:03:51;;;;;;;24.33;8.70;;;;;;;;;;10441987;28;20130;-86
2023/03/15 20:08:52;;;;;;;18.77;7.60;;;;;;;;;;10457956;28;20045;-87
2023/03/15 20:13:53;;;;;;;22.83;8.23;;;;;;;;;;10417955;28;20049;-87
2023/03/15 20:18:55;;;;;;;20.93;8.03;;;;;;;;;;10444245;28;20040;-88
2023/03/15 20:23:56;;;;;;;25.10;9.17;;;;;;;;;;10481297;28;20106;-88
2023/03/15 20:28:57;;;;;;;32.73;13.40;;;;;;;;;;10452900;28;20033;-88
2023/03/15 20:33:59;;;;;;;43.63;16.63;;;;;;;;;;10448464;28;20033;-88
2023/03/15 20:39:00;;;;;;;40.73;15.83;;;;;;;;;;10457482;28;20106;-87
2023/03/15 20:44:01;;;;;;;34.73;13.20;;;;;;;;;;10473571;28;20040;-87
2023/03/15 20:49:02;;;;;;;38.57;12.80;;;;;;;;;;10433834;28;20079;-86
2023/03/15 20:54:03;;;;;;;34.27;13.13;;;;;;;;;;10450900;28;20460;-86
2023/03/15 20:59:04;;;;;;;31.47;12.47;;;;;;;;;;10456685;28;20036;-86
2023/03/15 21:04:05;;;;;;;34.90;13.77;;;;;;;;;;10447594;28;20086;-87
2023/03/15 21:09:06;;;;;;;46.67;17.40;;;;;;;;;;10467296;28;20024;-87
2023/03/15 21:14:08;;;;;;;55.80;21.30;;;;;;;;;;10441994;28;20063;-86
2023/03/15 21:19:09;;;;;;;47.53;19.97;;;;;;;;;;10449789;28;20033;-86
2023/03/15 21:24:11;;;;;;;40.07;15.83;;;;;;;;;;10472668;28;20029;-87
2023/03/15 21:29:12;;;;;;;32.13;13.73;;;;;;;;;;10438159;28;20444;-87
2023/03/15 21:34:13;;;;;;;31.20;13.23;;;;;;;;;;10448644;28;20512;-87
2023/03/15 21:39:14;;;;;;;36.93;15.30;;;;;;;;;;10468859;28;20028;-86
2023/03/15 21:44:15;;;;;;;34.63;16.13;;;;;;;;;;10472102;28;20734;-86
2023/03/15 21:49:16;;;;;;;40.90;16.80;;;;;;;;;;10453175;28;20119;-87
2023/03/15 21:54:17;;;;;;;39.03;15.80;;;;;;;;;;10470875;28;20887;-87
2023/03/15 21:59:19;;;;;;;31.33;12.67;;;;;;;;;;10466640;28;20059;-88
2023/03/15 22:04:20;;;;;;;30.30;12.57;;;;;;;;;;10477175;28;20487;-87
2023/03/15 22:09:22;;;;;;;27.33;12.97;;;;;;;;;;10459539;28;20034;-87
2023/03/15 22:14:23;;;;;;;27.27;13.53;;;;;;;;;;10452021;28;20457;-87
2023/03/15 22:19:24;;;;;;;28.00;13.43;;;;;;;;;;10446837;28;20041;-87
2023/03/15 22:24:25;;;;;;;33.47;15.10;;;;;;;;;;10431157;28;20043;-87
2023/03/15 22:29:26;;;;;;;33.03;14.47;;;;;;;;;;10459837;28;20025;-88
2023/03/15 22:34:27;;;;;;;40.50;16.63;;;;;;;;;;10468284;28;20032;-88
2023/03/15 22:39:28;;;;;;;35.37;14.50;;;;;;;;;;10455876;28;20037;-88
2023/03/15 22:44:29;;;;;;;33.93;14.50;;;;;;;;;;10435960;28;20597;-87
2023/03/15 22:49:30;;;;;;;29.97;13.50;;;;;;;;;;10431976;28;20036;-88
2023/03/15 22:54:31;;;;;;;32.90;14.23;;;;;;;;;;10454940;28;20029;-88
2023/03/15 22:59:32;;;;;;;34.20;16.23;;;;;;;;;;10432193;28;20041;-87
2023/03/15 23:04:33;;;;;;;36.73;15.17;;;;;;;;;;10439095;28;20825;-88
2023/03/15 23:09:34;;;;;;;39.67;15.73;;;;;;;;;;10442627;28;20033;-87
2023/03/15 23:14:35;;;;;;;32.87;13.93;;;;;;;;;;10444219;28;20358;-88
2023/03/15 23:19:37;;;;;;;39.07;14.53;;;;;;;;;;10448643;28;20033;-89
2023/03/15 23:24:39;;;;;;;39.27;16.03;;;;;;;;;;10449718;28;20047;-88
2023/03/15 23:29:40;;;;;;;39.37;15.73;;;;;;;;;;10428111;28;20119;-88
2023/03/15 23:34:42;;;;;;;39.50;16.43;;;;;;;;;;10435796;28;20353;-89
2023/03/15 23:39:43;;;;;;;31.73;14.33;;;;;;;;;;10455049;28;20037;-89
2023/03/15 23:44:44;;;;;;;33.40;14.43;;;;;;;;;;10455329;28;20041;-88
2023/03/15 23:49:45;;;;;;;32.17;14.27;;;;;;;;;;10438282;28;20123;-88
2023/03/15 23:54:46;;;;;;;34.53;15.07;;;;;;;;;;10458480;28;20037;-88
2023/03/15 23:59:47;;;;;;;31.60;13.30;;;;;;;;;;10456569;28;20041;-88
